Fort Lauderdale Hollywood International Airport Fort Lauderdale US
ICAO: KFLL
IATA: FLL
Category: Large
Scheduled Services: Yes

Elevation: 9 ft
TransAlt. 18000 ft.

Airport Communications:
MIAMI APP:118.1
ATIS:135
CLNC DEL:128.4
MIAMI DEP:119.7
GND:121.4
TWR:119.3
UNICOM:122.95

KFLL Zoom In..

If you have problems with the map follow the link
https://www.worldairports.se/pages/airport.php?
ICAO=KFLL

Runways:

(A) RW 10L length 9000 ft width 150 ft
ILS 110.10 / hdg 96

(B) RW 10R length 5276 ft width 100 ft
---- / hdg 96

(C) RW 28L length 5276 ft width 100 ft
---- / hdg 276

(D) RW 28R length 9000 ft width 150 ft
ILS 110.70 / hdg 276

Location; KFLL
Day. 06 / Time. 02.53 Zulu
* Altimeter: 30.15
* Temperature: 15° c. 59°f.
* Wind from: 340° Speed 05 kn.
Dewpoint: 07° c.
Visibility: 10 Statute Miles.
Clouds: Broken 25000 ft.

KFLL 060253Z 34005KT 10SM BKN250 15/07 A3015 RMK AO2 SLP208 T01500072 51012


Wind From 340°
Speed 05 kn.

 
 
jpsmedia worldairports.se 2019   terms of use